createdAt,value
2023-05-13T09:05:29.099Z,1.80
2023-05-13T09:08:34.510Z,1.80
2023-05-13T09:11:43.236Z,1.25
2023-05-13T09:14:48.178Z,2.10
2023-05-13T09:17:55.663Z,1.60
2023-05-13T09:21:03.038Z,1.50
2023-05-13T09:24:31.382Z,1.80
2023-05-13T09:27:44.847Z,1.50
2023-05-13T09:30:53.198Z,1.50
2023-05-13T09:34:08.299Z,1.55
2023-05-13T09:37:21.737Z,1.42
2023-05-13T09:40:28.833Z,1.50
2023-05-13T09:43:37.816Z,1.37
2023-05-13T09:46:42.886Z,1.20
2023-05-13T09:49:50.032Z,1.27
2023-05-13T09:52:58.111Z,1.30
2023-05-13T09:56:06.878Z,1.47
2023-05-13T09:59:12.332Z,1.35
2023-05-13T10:02:22.924Z,1.20
2023-05-13T10:05:28.498Z,0.90
2023-05-13T10:08:35.210Z,1.20
2023-05-13T10:11:40.624Z,1.17
2023-05-13T10:14:46.288Z,1.40
2023-05-13T10:17:51.910Z,1.25
2023-05-13T10:21:01.037Z,1.30
2023-05-13T10:24:05.953Z,1.92
2023-05-13T10:27:12.253Z,1.30
2023-05-13T10:30:18.046Z,1.42
2023-05-13T10:33:23.826Z,1.85
2023-05-13T10:37:02.112Z,1.20
2023-05-13T10:40:50.517Z,1.20
2023-05-13T10:43:49.644Z,1.20
2023-05-13T10:46:58.467Z,1.20
2023-05-13T10:50:11.984Z,1.50
2023-05-13T10:53:19.492Z,1.30
2023-05-13T10:56:25.477Z,1.25
2023-05-13T10:59:31.055Z,1.10
2023-05-13T11:02:40.657Z,1.30
2023-05-13T11:05:47.144Z,1.15
2023-05-13T11:08:58.361Z,1.05
2023-05-13T11:12:02.802Z,1.35
2023-05-13T11:15:13.290Z,2.47
2023-05-13T11:18:21.472Z,1.60
2023-05-13T11:21:27.785Z,1.40
2023-05-13T11:24:33.920Z,1.17
2023-05-13T11:27:41.652Z,2.58
2023-05-13T11:30:47.669Z,1.30
2023-05-13T11:34:32.097Z,1.22
2023-05-13T11:37:38.465Z,1.20
2023-05-13T11:40:48.109Z,1.10
2023-05-13T11:43:52.961Z,1.20
2023-05-13T11:47:13.139Z,1.30
2023-05-13T11:50:33.958Z,1.30
2023-05-13T11:53:39.576Z,1.20
2023-05-13T11:56:45.169Z,1.17
2023-05-13T11:59:51.510Z,1.10
2023-05-13T12:02:57.260Z,1.07
2023-05-13T12:06:02.590Z,1.20
2023-05-13T12:09:09.688Z,1.05
2023-05-13T12:12:16.894Z,1.05
2023-05-13T12:15:32.839Z,1.60
2023-05-13T12:18:40.358Z,1.45
2023-05-13T12:21:50.699Z,1.20
2023-05-13T12:24:58.514Z,1.10
2023-05-13T12:28:08.115Z,1.27
2023-05-13T12:31:16.857Z,1.20
2023-05-13T12:34:24.382Z,1.02
2023-05-13T12:37:30.512Z,1.07
2023-05-13T12:40:36.146Z,1.10
2023-05-13T12:43:41.156Z,1.00
2023-05-13T12:46:47.782Z,1.30
2023-05-13T12:50:13.462Z,1.12
2023-05-13T12:53:19.809Z,1.10
2023-05-13T12:56:24.561Z,1.85
2023-05-13T12:59:30.746Z,1.17
2023-05-13T13:02:36.213Z,1.25
2023-05-13T13:05:41.798Z,1.40
2023-05-13T13:08:47.691Z,1.30
2023-05-13T13:11:54.764Z,1.32
2023-05-13T13:15:00.796Z,1.55
2023-05-13T13:18:05.764Z,1.37
2023-05-13T13:21:12.515Z,1.30
2023-05-13T13:24:17.905Z,1.25
2023-05-13T13:27:25.519Z,1.30
2023-05-13T13:30:32.209Z,1.10
2023-05-13T13:33:37.551Z,1.40
2023-05-13T13:36:43.116Z,1.70
2023-05-13T13:39:48.048Z,1.27
2023-05-13T13:42:55.271Z,1.40
2023-05-13T13:46:01.783Z,1.62
2023-05-13T13:49:22.824Z,1.20
2023-05-13T13:52:17.547Z,1.35
2023-05-13T13:55:22.758Z,1.25
2023-05-13T13:58:27.736Z,1.37
2023-05-13T14:01:32.452Z,1.52
2023-05-13T14:04:39.790Z,1.30
2023-05-13T14:07:45.731Z,1.27
2023-05-13T14:10:50.640Z,1.40
2023-05-13T14:13:55.578Z,1.20
2023-05-13T14:17:00.569Z,1.80
2023-05-13T14:20:05.569Z,1.40
2023-05-13T14:23:10.914Z,1.55
2023-05-13T14:26:20.596Z,1.37
2023-05-13T14:29:27.327Z,1.40
2023-05-13T14:32:32.576Z,1.40
2023-05-13T14:35:40.154Z,1.70
2023-05-13T14:38:46.277Z,2.05
2023-05-13T14:41:52.842Z,2.45
2023-05-13T14:44:59.882Z,2.50
2023-05-13T14:48:06.472Z,2.05
2023-05-13T14:51:13.751Z,1.82
2023-05-13T14:54:20.989Z,1.50
2023-05-13T14:57:27.942Z,2.10
2023-05-13T15:00:34.801Z,1.90
2023-05-13T15:03:35.343Z,2.25
2023-05-13T15:06:42.554Z,2.08
2023-05-13T15:09:49.421Z,2.12
2023-05-13T15:12:57.232Z,2.00
2023-05-13T15:16:02.099Z,2.40
2023-05-13T15:19:08.031Z,1.70
2023-05-13T15:22:14.183Z,2.25
2023-05-13T15:25:20.997Z,1.70
2023-05-13T15:28:27.423Z,2.05
2023-05-13T15:31:34.014Z,2.50
2023-05-13T15:34:39.882Z,2.20
2023-05-13T15:37:45.781Z,1.87
2023-05-13T15:40:54.058Z,1.92
2023-05-13T15:44:01.231Z,2.15
2023-05-13T15:47:07.327Z,2.10
2023-05-13T15:50:14.564Z,2.20
2023-05-13T15:53:21.578Z,2.12
2023-05-13T15:56:28.122Z,2.70
2023-05-13T15:59:33.651Z,2.10
2023-05-13T16:02:45.837Z,2.00
2023-05-13T16:05:51.355Z,2.15
2023-05-13T16:08:58.209Z,1.80
2023-05-13T16:12:04.534Z,1.82
2023-05-13T16:15:09.748Z,1.55
2023-05-13T16:18:16.292Z,1.65
2023-05-13T16:21:22.267Z,1.87
2023-05-13T16:24:28.798Z,1.82
2023-05-13T16:27:37.029Z,1.50
2023-05-13T16:30:43.746Z,1.80
2023-05-13T16:33:50.864Z,1.55
2023-05-13T16:36:59.465Z,1.70
2023-05-13T16:40:07.887Z,1.60
2023-05-13T16:43:14.914Z,1.50
2023-05-13T16:46:20.973Z,1.60
2023-05-13T16:49:27.570Z,1.70
2023-05-13T16:52:34.180Z,1.80
2023-05-13T16:55:33.765Z,1.87
2023-05-13T16:58:40.949Z,2.17
2023-05-13T17:01:46.866Z,1.85
2023-05-13T17:04:53.352Z,2.67
2023-05-13T17:07:58.931Z,2.30
2023-05-13T17:11:05.016Z,1.98
2023-05-13T17:14:11.391Z,2.05
2023-05-13T17:17:17.409Z,2.27
2023-05-13T17:20:27.581Z,2.15
2023-05-13T17:23:32.843Z,2.22
2023-05-13T17:26:39.185Z,2.42
2023-05-13T17:29:45.417Z,2.80
2023-05-13T17:32:51.158Z,1.87
2023-05-13T17:35:57.482Z,2.47
2023-05-13T17:39:04.864Z,3.25
2023-05-13T17:42:10.967Z,3.80
2023-05-13T17:45:18.011Z,7.12
2023-05-13T17:48:23.903Z,6.20
2023-05-13T17:51:30.786Z,11.25
2023-05-13T17:54:36.406Z,10.23
2023-05-13T17:57:42.916Z,9.10
2023-05-13T18:00:49.097Z,10.60
2023-05-13T18:03:56.450Z,7.45
2023-05-13T18:07:03.281Z,27.02
2023-05-13T18:10:09.063Z,15.75
2023-05-13T18:13:14.625Z,13.70
2023-05-13T18:16:21.030Z,29.40
2023-05-13T18:19:27.591Z,20.37
2023-05-13T18:22:34.593Z,21.23
2023-05-13T18:25:52.377Z,24.70
2023-05-13T18:28:48.852Z,27.95
2023-05-13T18:31:54.610Z,26.33
2023-05-13T18:35:01.344Z,23.83
2023-05-13T18:38:07.600Z,20.92
2023-05-13T18:41:13.322Z,20.30
2023-05-13T18:44:19.514Z,20.35
2023-05-13T18:47:25.572Z,16.52
2023-05-13T18:50:26.261Z,15.20
2023-05-13T18:53:32.788Z,14.60
2023-05-13T18:56:39.166Z,9.85
2023-05-13T18:59:46.269Z,14.85
2023-05-13T19:02:52.981Z,15.00
2023-05-13T19:06:00.383Z,13.75
2023-05-13T19:09:08.075Z,12.93
2023-05-13T19:12:13.032Z,13.20
2023-05-13T19:15:20.345Z,12.07
2023-05-13T19:18:25.156Z,9.68
2023-05-13T19:21:30.790Z,9.38
2023-05-13T19:24:37.100Z,10.08
2023-05-13T19:27:43.013Z,10.28
2023-05-13T19:30:48.747Z,10.23
2023-05-13T19:33:56.386Z,11.03
2023-05-13T19:37:02.587Z,11.25
2023-05-13T19:40:10.706Z,11.90
2023-05-13T19:43:15.495Z,10.65
2023-05-13T19:46:20.871Z,12.65
2023-05-13T19:49:26.158Z,12.18
2023-05-13T19:52:32.533Z,12.43
2023-05-13T19:55:39.317Z,11.85
2023-05-13T19:58:46.232Z,13.15
2023-05-13T20:01:53.434Z,12.93
2023-05-13T20:05:00.352Z,10.90
2023-05-13T20:08:09.294Z,10.13
2023-05-13T20:11:14.716Z,10.38
2023-05-13T20:14:21.527Z,9.65
2023-05-13T20:17:31.591Z,9.00
2023-05-13T20:20:38.727Z,9.10
2023-05-13T20:23:46.236Z,8.30
2023-05-13T20:26:50.771Z,8.85
2023-05-13T20:30:00.969Z,8.73
2023-05-13T20:33:08.036Z,8.85
2023-05-13T20:36:15.464Z,8.15
2023-05-13T20:39:23.292Z,10.60
2023-05-13T20:42:31.098Z,10.43
2023-05-13T20:45:37.694Z,11.80
2023-05-13T20:48:42.536Z,10.63
2023-05-13T20:51:50.019Z,10.95
2023-05-13T20:54:56.105Z,9.75
2023-05-13T20:58:03.055Z,10.80
2023-05-13T21:01:08.519Z,9.50
2023-05-13T21:04:17.878Z,9.25
2023-05-13T21:07:24.131Z,11.35
2023-05-13T21:10:31.388Z,10.13
2023-05-13T21:13:37.739Z,8.95
2023-05-13T21:16:43.533Z,10.53
2023-05-13T21:19:49.660Z,8.83
2023-05-13T21:22:55.404Z,8.48
2023-05-13T21:26:01.418Z,9.00
2023-05-13T21:29:07.458Z,7.90
2023-05-13T21:32:12.878Z,9.90
2023-05-13T21:35:21.269Z,10.70
2023-05-13T21:38:27.226Z,11.28
2023-05-13T21:41:34.282Z,9.63
2023-05-13T21:44:39.115Z,10.30
2023-05-13T21:47:44.132Z,9.85
2023-05-13T21:50:49.929Z,9.63
2023-05-13T21:53:56.479Z,10.03
2023-05-13T21:57:03.026Z,9.60
2023-05-13T22:00:11.679Z,9.68
2023-05-13T22:03:18.226Z,8.73
2023-05-13T22:06:18.888Z,9.48
2023-05-13T22:09:23.686Z,8.68
2023-05-13T22:12:30.634Z,10.03
2023-05-13T22:15:36.280Z,7.62
2023-05-13T22:18:42.877Z,8.70
2023-05-13T22:21:48.480Z,8.40
2023-05-13T22:24:54.310Z,7.92
2023-05-13T22:28:00.794Z,6.83
2023-05-13T22:31:08.019Z,6.67
2023-05-13T22:34:13.611Z,6.55
2023-05-13T22:37:19.691Z,6.15
2023-05-13T22:40:25.849Z,6.28
2023-05-13T22:43:31.212Z,6.22
2023-05-13T22:46:37.676Z,6.22
2023-05-13T22:49:43.668Z,6.50
2023-05-13T22:52:49.701Z,6.55
2023-05-13T22:55:55.669Z,5.90
2023-05-13T22:59:02.252Z,6.35
2023-05-13T23:02:07.897Z,6.05
2023-05-13T23:05:14.205Z,5.87
2023-05-13T23:08:20.188Z,5.95
2023-05-13T23:11:26.940Z,6.10
2023-05-13T23:14:35.978Z,7.30
2023-05-13T23:17:40.862Z,6.22
2023-05-13T23:20:46.044Z,6.87
2023-05-13T23:23:51.316Z,7.55
2023-05-13T23:26:57.774Z,6.25
2023-05-13T23:30:03.213Z,6.72
2023-05-13T23:33:09.354Z,6.92
2023-05-13T23:36:15.640Z,13.50
2023-05-13T23:39:21.584Z,10.60
2023-05-13T23:42:29.000Z,9.48
2023-05-13T23:45:34.886Z,8.00
2023-05-13T23:48:42.236Z,8.28
2023-05-13T23:51:47.892Z,7.20
2023-05-13T23:54:54.056Z,7.25
2023-05-13T23:58:01.523Z,7.50
